Time;durP1;ratioP1;P1;durP2;ratioP2;P2;SDS_P1;SDS_P2;PMS_P1;PMS_P2;Temp;Humidity;BMP_temperature;BMP_pressure;BME280_temperature;BME280_humidity;BME280_pressure;Samples;Min_cycle;Max_cycle;Signal;HPM_P1;HPM_P2
2022/03/05 00:02:10;;;;;;;15.13;6.93;;;;;;;1.78;77.02;100202.38;5093035;28;20105;-79
2022/03/05 00:04:38;;;;;;;15.05;6.85;;;;;;;1.77;77.04;100207.69;5093021;28;20048;-80
2022/03/05 00:07:05;;;;;;;15.65;7.65;;;;;;;1.74;76.89;100201.53;5092765;28;20070;-80
2022/03/05 00:09:33;;;;;;;21.20;10.43;;;;;;;1.74;76.94;100196.19;5093107;28;20048;-80
2022/03/05 00:12:01;;;;;;;14.48;6.72;;;;;;;1.74;76.90;100198.84;5093015;28;20053;-79
2022/03/05 00:14:28;;;;;;;18.70;6.82;;;;;;;1.71;76.70;100198.03;5093136;28;20116;-80
2022/03/05 00:16:57;;;;;;;14.52;6.10;;;;;;;1.68;76.47;100196.28;5093054;28;20048;-79
2022/03/05 00:19:25;;;;;;;15.90;7.00;;;;;;;1.72;76.43;100195.34;5092803;28;20439;-80
2022/03/05 00:21:54;;;;;;;13.80;5.82;;;;;;;1.77;76.64;100197.94;5092675;28;20048;-79
2022/03/05 00:24:22;;;;;;;13.65;6.30;;;;;;;1.71;76.52;100198.03;5092682;28;20504;-80
2022/03/05 00:26:49;;;;;;;14.25;6.05;;;;;;;1.66;76.54;100207.88;5092878;28;20043;-79
2022/03/05 00:29:17;;;;;;;15.30;6.40;;;;;;;1.74;76.29;100208.66;5092863;28;20098;-79
2022/03/05 00:31:44;;;;;;;12.68;5.95;;;;;;;1.71;76.53;100195.38;5092675;28;20047;-79
2022/03/05 00:34:13;;;;;;;12.85;6.03;;;;;;;1.66;76.73;100206.09;5092770;28;20044;-79
2022/03/05 00:36:41;;;;;;;12.77;6.05;;;;;;;1.67;77.04;100199.84;5092418;28;20055;-79
2022/03/05 00:39:08;;;;;;;13.32;6.47;;;;;;;1.66;77.52;100195.44;5093039;28;20069;-79
2022/03/05 00:41:36;;;;;;;12.23;6.10;;;;;;;1.70;76.46;100190.94;5094728;28;20044;-80
2022/03/05 00:44:04;;;;;;;14.18;6.72;;;;;;;1.69;77.03;100195.38;5096596;28;20044;-80
2022/03/05 00:46:31;;;;;;;13.45;6.85;;;;;;;1.63;77.50;100200.81;5096410;28;20048;-79
2022/03/05 00:48:59;;;;;;;16.08;6.40;;;;;;;1.67;77.54;100201.66;5095831;28;20118;-80
2022/03/05 00:51:28;;;;;;;14.15;6.97;;;;;;;1.65;76.98;100200.78;5096028;28;20044;-79
2022/03/05 00:53:56;;;;;;;13.55;6.82;;;;;;;1.57;76.54;100204.41;5095945;28;20044;-80
2022/03/05 00:56:23;;;;;;;17.10;7.72;;;;;;;1.61;77.30;100207.94;5095876;28;20067;-80
2022/03/05 00:58:51;;;;;;;15.95;7.43;;;;;;;1.57;76.94;100203.56;5096096;28;20048;-80
2022/03/05 01:01:18;;;;;;;16.92;7.30;;;;;;;1.55;77.28;100197.38;5096250;28;20118;-79
2022/03/05 01:03:46;;;;;;;14.80;7.40;;;;;;;1.55;76.90;100198.22;5095755;28;20048;-80
2022/03/05 01:06:13;;;;;;;14.13;6.88;;;;;;;1.61;76.49;100201.72;5096067;28;20048;-80
2022/03/05 01:08:42;;;;;;;12.52;6.53;;;;;;;1.59;76.31;100209.75;5096251;28;20101;-80
2022/03/05 01:11:15;;;;;;;12.98;6.65;;;;;;;1.64;76.28;100202.56;5096007;28;20040;-79
2022/03/05 01:13:43;;;;;;;13.20;6.00;;;;;;;1.60;76.46;100203.50;5097936;28;20097;-79
2022/03/05 01:16:10;;;;;;;15.10;7.20;;;;;;;1.62;76.32;100208.78;5096021;28;20052;-79
2022/03/05 01:18:38;;;;;;;15.43;6.63;;;;;;;1.62;76.46;100206.13;5095512;28;20093;-80
2022/03/05 01:21:05;;;;;;;16.77;7.00;;;;;;;1.59;76.12;100217.72;5095892;28;20044;-80
2022/03/05 01:23:33;;;;;;;22.40;9.32;;;;;;;1.58;76.30;100210.63;5095711;28;20485;-80
2022/03/05 01:26:02;;;;;;;15.90;6.88;;;;;;;1.55;76.86;100218.66;5095631;28;20044;-80
2022/03/05 01:28:29;;;;;;;20.50;8.93;;;;;;;1.60;76.47;100216.81;5095691;28;20043;-80
2022/03/05 01:30:57;;;;;;;18.65;7.57;;;;;;;1.57;76.26;100216.88;5095605;28;20121;-80
2022/03/05 01:33:24;;;;;;;12.30;5.90;;;;;;;1.56;76.98;100215.97;5095284;28;20055;-80
2022/03/05 01:35:52;;;;;;;13.80;6.30;;;;;;;1.61;76.72;100213.25;5095626;28;20093;-80
2022/03/05 01:38:20;;;;;;;17.95;7.45;;;;;;;1.57;76.87;100217.72;5095524;28;20558;-79
2022/03/05 01:40:48;;;;;;;19.15;7.43;;;;;;;1.50;77.64;100209.88;5095601;28;20553;-80
2022/03/05 01:43:17;;;;;;;14.00;6.18;;;;;;;1.50;78.23;100215.19;5095491;28;20048;-79
2022/03/05 01:45:44;;;;;;;14.73;6.65;;;;;;;1.47;77.66;100215.22;5095202;28;20485;-80
2022/03/05 01:48:12;;;;;;;16.42;7.55;;;;;;;1.51;78.00;100219.63;5094430;28;20055;-80
2022/03/05 01:50:40;;;;;;;13.25;6.22;;;;;;;1.49;78.18;100216.09;5105077;28;20089;-79
2022/03/05 01:53:07;;;;;;;14.05;6.40;;;;;;;1.54;78.41;100219.56;5114861;28;20039;-80
2022/03/05 01:55:35;;;;;;;12.77;5.70;;;;;;;1.53;78.71;100210.69;5115325;28;20056;-79
2022/03/05 01:58:02;;;;;;;13.10;5.38;;;;;;;1.49;78.79;100213.44;5111003;28;20036;-80
2022/03/05 02:00:32;;;;;;;12.02;5.55;;;;;;;1.53;78.25;100209.81;5094678;28;20047;-79
2022/03/05 02:02:59;;;;;;;11.38;5.45;;;;;;;1.44;79.31;100209.03;5094498;28;20507;-79
2022/03/05 02:05:27;;;;;;;12.70;5.68;;;;;;;1.48;79.43;100211.66;5094848;28;20458;-80
2022/03/05 02:07:55;;;;;;;11.95;5.38;;;;;;;1.48;79.21;100214.34;5094827;28;20068;-80
2022/03/05 02:10:23;;;;;;;12.40;5.82;;;;;;;1.46;79.47;100217.00;5095014;28;20117;-80
2022/03/05 02:12:50;;;;;;;13.95;5.75;;;;;;;1.44;79.43;100214.38;5094809;28;20050;-80
2022/03/05 02:15:18;;;;;;;12.20;5.97;;;;;;;1.40;79.21;100212.63;5094727;28;20048;-79
2022/03/05 02:17:47;;;;;;;14.02;5.82;;;;;;;1.40;79.07;100209.97;5094572;28;20101;-80
2022/03/05 02:20:14;;;;;;;12.38;5.80;;;;;;;1.48;79.26;100222.31;5094635;28;20040;-79
2022/03/05 02:22:43;;;;;;;13.60;5.45;;;;;;;1.42;80.16;100220.59;5094756;28;20040;-80
2022/03/05 02:25:11;;;;;;;12.02;5.60;;;;;;;1.40;79.89;100215.28;5094578;28;20093;-80
2022/03/05 02:27:38;;;;;;;12.02;5.90;;;;;;;1.37;79.66;100210.00;5094718;28;20127;-79
2022/03/05 02:30:08;;;;;;;11.43;5.78;;;;;;;1.36;79.84;100218.88;5094402;28;20044;-80
2022/03/05 02:32:36;;;;;;;17.77;6.95;;;;;;;1.38;79.88;100222.41;5094007;28;20040;-80
2022/03/05 02:35:04;;;;;;;14.20;7.18;;;;;;;1.44;79.35;100222.34;5094402;28;20043;-80
2022/03/05 02:37:31;;;;;;;13.48;6.25;;;;;;;1.38;79.03;100216.22;5094478;28;20504;-80
2022/03/05 02:40:01;;;;;;;16.15;7.38;;;;;;;1.43;79.10;100222.38;5094347;28;20485;-79
2022/03/05 02:42:28;;;;;;;12.45;6.00;;;;;;;1.36;79.33;100218.88;5094226;28;20044;-80
2022/03/05 02:44:56;;;;;;;13.18;6.00;;;;;;;1.39;79.52;100215.31;5093908;28;20093;-79
2022/03/05 02:47:24;;;;;;;16.65;7.13;;;;;;;1.36;79.63;100218.88;5094237;28;20044;-79
2022/03/05 02:49:51;;;;;;;12.98;6.28;;;;;;;1.35;79.74;100217.13;5093725;28;20044;-79
2022/03/05 02:52:19;;;;;;;13.43;6.55;;;;;;;1.35;79.37;100216.25;5094057;28;20048;-80
2022/03/05 02:54:46;;;;;;;17.35;7.10;;;;;;;1.36;79.94;100218.88;5093849;28;20485;-80
2022/03/05 02:57:15;;;;;;;15.07;7.68;;;;;;;1.34;79.89;100220.69;5093790;28;20064;-79
2022/03/05 02:59:43;;;;;;;13.00;6.68;;;;;;;1.30;80.24;100217.19;5093364;28;20109;-79
2022/03/05 03:02:10;;;;;;;14.95;7.30;;;;;;;1.39;79.71;100218.84;5094034;28;20044;-80
2022/03/05 03:04:38;;;;;;;15.55;8.50;;;;;;;1.38;79.02;100224.22;5093703;28;20045;-79
2022/03/05 03:07:06;;;;;;;14.60;7.25;;;;;;;1.40;79.01;100227.72;5093780;28;20558;-80
2022/03/05 03:09:33;;;;;;;15.27;6.82;;;;;;;1.36;78.84;100228.66;5093848;28;20097;-80
2022/03/05 03:12:01;;;;;;;13.38;7.03;;;;;;;1.34;78.91;100219.81;5093708;28;20040;-79
2022/03/05 03:14:30;;;;;;;13.98;7.28;;;;;;;1.28;79.16;100232.31;5093526;28;20074;-79
2022/03/05 03:16:57;;;;;;;15.35;7.38;;;;;;;1.33;79.25;100234.91;5093797;28;20048;-79
2022/03/05 03:19:25;;;;;;;13.00;6.90;;;;;;;1.33;79.00;100234.03;5093712;28;20048;-79
2022/03/05 03:21:52;;;;;;;13.52;6.68;;;;;;;1.35;79.31;100226.91;5093641;28;20105;-79
2022/03/05 03:24:20;;;;;;;11.98;6.45;;;;;;;1.33;79.27;100237.56;5093482;28;20074;-80
2022/03/05 03:26:48;;;;;;;13.88;6.35;;;;;;;1.28;79.22;100234.06;5093729;28;20051;-79
2022/03/05 03:29:15;;;;;;;14.70;7.07;;;;;;;1.23;79.64;100235.91;5093095;28;20078;-79
2022/03/05 03:31:44;;;;;;;12.38;5.93;;;;;;;1.28;79.44;100234.97;5093411;28;20047;-79
2022/03/05 03:34:12;;;;;;;16.23;6.78;;;;;;;1.28;79.41;100239.41;5093355;28;20047;-80
2022/03/05 03:36:39;;;;;;;12.15;5.90;;;;;;;1.24;79.62;100237.69;5093486;28;20046;-80
2022/03/05 03:39:07;;;;;;;12.98;6.22;;;;;;;1.29;79.54;100233.19;5093403;28;20044;-80
2022/03/05 03:41:34;;;;;;;14.98;7.13;;;;;;;1.35;79.76;100240.22;5093042;28;20043;-80
2022/03/05 03:44:02;;;;;;;14.07;6.47;;;;;;;1.24;79.95;100235.91;5092905;28;20689;-80
2022/03/05 03:46:30;;;;;;;11.25;5.75;;;;;;;1.30;80.00;100245.59;5093474;28;20044;-79
2022/03/05 03:48:59;;;;;;;14.65;6.75;;;;;;;1.28;80.27;100247.38;5092999;28;20040;-80
2022/03/05 03:51:26;;;;;;;12.48;5.72;;;;;;;1.27;80.42;100248.28;5092772;28;20443;-80
2022/03/05 03:53:54;;;;;;;14.43;6.60;;;;;;;1.23;80.45;100251.88;5093004;28;20044;-79
2022/03/05 03:56:21;;;;;;;13.40;6.15;;;;;;;1.26;80.42;100243.84;5093151;28;20062;-79
2022/03/05 03:58:49;;;;;;;11.68;5.47;;;;;;;1.28;80.70;100248.28;5092562;28;20097;-79
2022/03/05 04:01:16;;;;;;;10.68;5.32;;;;;;;1.24;80.57;100250.97;5093131;28;20048;-80
2022/03/05 04:03:44;;;;;;;13.20;5.63;;;;;;;1.32;80.35;100248.25;5092861;28;20044;-79
2022/03/05 04:06:13;;;;;;;10.68;5.35;;;;;;;1.25;80.60;100258.06;5093199;28;20048;-79
2022/03/05 04:08:43;;;;;;;11.20;5.45;;;;;;;1.22;80.78;100255.44;5092979;28;20101;-80
2022/03/05 04:11:11;;;;;;;11.93;5.38;;;;;;;1.23;80.86;100257.19;5092971;28;20040;-79
2022/03/05 04:13:39;;;;;;;12.38;5.50;;;;;;;1.23;81.09;100258.09;5092533;28;20043;-80
2022/03/05 04:16:06;;;;;;;12.98;5.50;;;;;;;1.27;80.79;100250.94;5094204;28;20044;-80
2022/03/05 04:18:34;;;;;;;12.50;5.55;;;;;;;1.28;81.02;100252.72;5097209;28;20047;-80
2022/03/05 04:21:04;;;;;;;10.98;4.95;;;;;;;1.24;81.12;100262.53;5097106;28;20051;-79
2022/03/05 04:23:33;;;;;;;11.45;5.60;;;;;;;1.20;81.18;100255.44;5096851;28;20121;-80
2022/03/05 04:26:01;;;;;;;10.93;5.45;;;;;;;1.18;81.55;100267.03;5096979;28;20043;-80
2022/03/05 04:28:28;;;;;;;12.30;5.22;;;;;;;1.26;80.85;100271.38;5096504;28;20040;-80
2022/03/05 04:30:56;;;;;;;14.43;6.18;;;;;;;1.23;81.34;100281.16;5096865;28;20051;-79
2022/03/05 04:33:23;;;;;;;11.38;5.30;;;;;;;1.26;81.35;100275.78;5096622;28;20055;-80
2022/03/05 04:35:51;;;;;;;14.93;6.70;;;;;;;1.20;81.48;100275.88;5096722;28;20044;-79
2022/03/05 04:38:18;;;;;;;14.80;6.03;;;;;;;1.18;81.91;100293.63;5096741;28;20136;-80
2022/03/05 04:40:47;;;;;;;13.90;5.50;;;;;;;1.24;81.29;100278.50;5096792;28;20401;-80
2022/03/05 04:43:15;;;;;;;12.43;5.90;;;;;;;1.19;81.30;100290.06;5096045;28;20039;-79
2022/03/05 04:45:42;;;;;;;13.85;6.47;;;;;;;1.26;81.31;100297.09;5096500;28;20059;-79
2022/03/05 04:48:10;;;;;;;12.75;5.55;;;;;;;1.27;81.44;100291.75;5096323;28;20493;-79
2022/03/05 04:50:37;;;;;;;10.77;5.07;;;;;;;1.17;81.62;100298.06;5096076;28;20562;-80
2022/03/05 04:53:05;;;;;;;11.70;5.10;;;;;;;1.21;81.58;100301.59;5096293;28;20043;-79
2022/03/05 04:55:32;;;;;;;12.55;5.13;;;;;;;1.19;81.57;100298.91;5095758;28;20079;-79
2022/03/05 04:58:01;;;;;;;12.02;4.70;;;;;;;1.23;81.12;100297.13;5097107;28;20040;-79
2022/03/05 05:00:29;;;;;;;11.13;5.00;;;;;;;1.20;81.36;100297.16;5096172;28;20051;-79
2022/03/05 05:02:56;;;;;;;13.38;5.72;;;;;;;1.22;81.63;100306.88;5096249;28;20044;-79
2022/03/05 05:05:24;;;;;;;13.10;5.15;;;;;;;1.17;81.43;100300.72;5096101;28;20052;-79
2022/03/05 05:07:52;;;;;;;11.73;5.43;;;;;;;1.18;81.02;100302.47;5095713;28;20043;-80
2022/03/05 05:10:19;;;;;;;9.32;4.63;;;;;;;1.24;81.57;100305.09;5095632;28;20497;-79
2022/03/05 05:12:47;;;;;;;13.23;6.45;;;;;;;1.20;81.38;100299.81;5096016;28;20040;-79
2022/03/05 05:15:15;;;;;;;9.85;4.68;;;;;;;1.19;81.10;100311.38;5095578;28;20073;-79
2022/03/05 05:17:43;;;;;;;10.95;4.63;;;;;;;1.20;81.38;100302.47;5095980;28;20052;-79
2022/03/05 05:20:12;;;;;;;9.98;4.60;;;;;;;1.20;81.82;100310.47;5095852;28;20485;-80
2022/03/05 05:22:40;;;;;;;10.15;4.78;;;;;;;1.24;81.06;100314.84;5095657;28;20044;-79
2022/03/05 05:25:08;;;;;;;10.38;4.30;;;;;;;1.22;81.46;100311.34;5095389;28;20048;-79
2022/03/05 05:27:37;;;;;;;10.30;4.68;;;;;;;1.19;81.70;100306.91;5095485;28;20048;-79
2022/03/05 05:30:06;;;;;;;12.30;5.03;;;;;;;1.23;81.64;100315.75;5095541;28;20109;-79
2022/03/05 05:32:35;;;;;;;13.20;4.57;;;;;;;1.22;81.37;100322.84;5095479;28;20450;-80
2022/03/05 05:35:03;;;;;;;11.40;5.38;;;;;;;1.22;81.85;100316.66;5095290;28;20048;-79
2022/03/05 05:37:30;;;;;;;11.35;4.57;;;;;;;1.14;81.57;100306.97;5095524;28;20052;-79
2022/03/05 05:39:58;;;;;;;10.43;4.90;;;;;;;1.16;81.60;100312.25;5095112;28;20051;-79
2022/03/05 05:42:25;;;;;;;10.68;4.93;;;;;;;1.20;81.76;100310.47;5095216;28;20043;-80
2022/03/05 05:44:53;;;;;;;9.70;4.22;;;;;;;1.18;82.07;100313.13;5095021;28;20418;-79
2022/03/05 05:47:21;;;;;;;10.60;4.40;;;;;;;1.20;81.83;100308.66;5095178;28;20106;-79
2022/03/05 05:49:50;;;;;;;11.13;4.97;;;;;;;1.18;81.73;100314.94;5094673;28;20055;-80
2022/03/05 05:52:18;;;;;;;11.05;4.30;;;;;;;1.21;81.88;100313.09;5094973;28;20044;-80
2022/03/05 05:54:45;;;;;;;10.35;4.32;;;;;;;1.21;81.79;100314.88;5094495;28;20044;-80
2022/03/05 05:57:13;;;;;;;10.48;4.78;;;;;;;1.19;81.57;100317.56;5094842;28;20056;-79
2022/03/05 05:59:40;;;;;;;10.55;4.32;;;;;;;1.21;81.74;100317.56;5094900;28;20048;-80
2022/03/05 06:02:08;;;;;;;10.48;4.70;;;;;;;1.23;81.51;100321.06;5094967;28;20043;-79
2022/03/05 06:04:36;;;;;;;9.18;4.13;;;;;;;1.23;81.02;100323.75;5095126;28;20040;-79
2022/03/05 06:07:05;;;;;;;10.32;4.50;;;;;;;1.18;81.46;100323.78;5094837;28;20052;-80
2022/03/05 06:09:32;;;;;;;10.75;4.63;;;;;;;1.15;81.41;100331.78;5094494;28;20051;-79
2022/03/05 06:12:00;;;;;;;11.73;4.55;;;;;;;1.18;81.29;100329.09;5094733;28;20117;-80
2022/03/05 06:14:27;;;;;;;10.25;4.55;;;;;;;1.18;81.12;100336.22;5094717;28;20105;-80
2022/03/05 06:16:55;;;;;;;10.27;4.35;;;;;;;1.15;81.24;100342.44;5094658;28;20048;-80
2022/03/05 06:19:23;;;;;;;9.85;4.45;;;;;;;1.24;81.23;100352.13;5094419;28;20040;-79
2022/03/05 06:21:50;;;;;;;10.93;4.65;;;;;;;1.25;81.06;100353.88;5094692;28;20044;-79
2022/03/05 06:24:19;;;;;;;8.45;3.90;;;;;;;1.24;81.14;100352.13;5094309;28;20044;-80
2022/03/05 06:26:47;;;;;;;9.57;4.38;;;;;;;1.21;81.00;100357.47;5094467;28;20040;-80
2022/03/05 06:29:14;;;;;;;11.27;4.68;;;;;;;1.19;81.43;100353.94;5094383;28;20040;-79
2022/03/05 06:31:42;;;;;;;9.35;4.20;;;;;;;1.17;81.23;100359.25;5093767;28;20101;-79
2022/03/05 06:34:09;;;;;;;10.55;4.68;;;;;;;1.27;80.63;100360.06;5098163;28;20497;-79
2022/03/05 06:36:37;;;;;;;11.60;4.72;;;;;;;1.27;80.59;100368.06;5096663;28;20105;-80
2022/03/05 06:39:05;;;;;;;14.27;5.60;;;;;;;1.24;81.06;100362.75;5104151;28;20051;-80
2022/03/05 06:41:34;;;;;;;11.13;4.90;;;;;;;1.16;80.46;100365.50;5103364;28;20043;-80
2022/03/05 06:44:02;;;;;;;11.02;4.85;;;;;;;1.22;80.32;100373.41;5102750;28;20118;-80
2022/03/05 06:46:29;;;;;;;11.48;4.40;;;;;;;1.24;79.90;100368.09;5104910;28;20040;-79
2022/03/05 06:48:57;;;;;;;11.13;4.50;;;;;;;1.22;79.88;100369.88;5090698;28;20378;-80
2022/03/05 06:51:24;;;;;;;9.30;4.05;;;;;;;1.27;79.72;100371.63;5093463;28;20048;-79
2022/03/05 06:53:52;;;;;;;12.98;5.00;;;;;;;1.25;79.59;100372.50;5092990;28;20047;-80
2022/03/05 06:56:20;;;;;;;12.93;5.55;;;;;;;1.30;79.55;100373.34;5093261;28;20128;-79
2022/03/05 06:58:48;;;;;;;21.73;10.55;;;;;;;1.25;79.15;100380.50;5093099;28;20047;-80
2022/03/05 07:01:16;;;;;;;14.70;7.70;;;;;;;1.28;79.56;100388.44;5090630;28;20048;-79
2022/03/05 07:03:44;;;;;;;25.10;16.88;;;;;;;1.37;78.95;100385.69;5096985;28;20048;-80
2022/03/05 07:06:11;;;;;;;13.75;7.38;;;;;;;1.38;78.93;100387.47;5093397;28;20044;-80
2022/03/05 07:08:39;;;;;;;14.05;5.15;;;;;;;1.33;79.22;100391.94;5093691;28;20438;-79
2022/03/05 07:11:07;;;;;;;10.95;4.03;;;;;;;1.49;77.28;100381.16;5093765;28;20087;-79
2022/03/05 07:13:35;;;;;;;11.95;6.13;;;;;;;1.31;77.98;100383.09;5093498;28;20062;-80
2022/03/05 07:16:05;;;;;;;20.48;14.18;;;;;;;1.33;78.41;100393.75;5093611;28;20097;-80
2022/03/05 07:18:32;;;;;;;14.45;8.68;;;;;;;1.28;78.02;100388.44;5093563;28;20044;-79
2022/03/05 07:21:00;;;;;;;19.80;11.18;;;;;;;1.29;78.16;100392.88;5093039;28;20487;-80
2022/03/05 07:34:51;;;;;;;15.73;8.90;;;;;;;1.37;77.14;100408.78;5151744;27;20409;-80
2022/03/05 07:37:19;;;;;;;27.10;15.68;;;;;;;1.30;77.64;100406.19;5151360;27;20046;-80
2022/03/05 07:39:47;;;;;;;15.10;6.45;;;;;;;1.37;77.51;100404.31;5151488;27;20038;-80
2022/03/05 07:42:14;;;;;;;94.68;28.05;;;;;;;1.38;77.74;100402.56;5151975;27;20042;-79
2022/03/05 07:44:42;;;;;;;26.67;11.38;;;;;;;1.39;77.77;100409.66;5147739;27;20401;-81
2022/03/05 07:47:09;;;;;;;35.53;17.10;;;;;;;1.30;76.12;100397.31;5130908;27;20059;-80
2022/03/05 07:49:37;;;;;;;18.75;9.85;;;;;;;1.38;76.65;100413.22;5147310;27;20043;-80
2022/03/05 07:52:07;;;;;;;51.95;15.43;;;;;;;1.45;76.31;100404.25;5128194;27;20050;-78
2022/03/05 07:54:34;;;;;;;19.67;6.95;;;;;;;1.47;76.02;100412.25;5146864;27;20054;-79
2022/03/05 07:57:02;;;;;;;24.73;10.60;;;;;;;1.50;75.51;100410.41;5127615;27;20047;-79
2022/03/05 07:59:29;;;;;;;12.63;6.20;;;;;;;1.52;75.07;100411.28;5127541;27;20062;-80
2022/03/05 08:01:57;;;;;;;18.08;7.57;;;;;;;1.52;75.42;100415.75;5147640;27;20096;-80
2022/03/05 08:04:25;;;;;;;12.52;6.13;;;;;;;1.50;75.39;100415.75;5148004;27;20050;-78
2022/03/05 08:06:52;;;;;;;7.95;3.70;;;;;;;1.65;73.50;100414.72;5128089;27;20055;-79
2022/03/05 08:09:21;;;;;;;13.18;6.95;;;;;;;1.61;74.96;100420.06;5126812;27;20064;-79
2022/03/05 08:11:49;;;;;;;14.00;7.38;;;;;;;1.50;74.79;100420.22;5146093;27;20046;-79
2022/03/05 08:14:16;;;;;;;16.88;8.48;;;;;;;1.53;73.54;100418.38;5147913;27;20046;-81
2022/03/05 08:16:44;;;;;;;22.83;11.90;;;;;;;1.66;73.93;100424.47;5147734;27;20047;-80
2022/03/05 08:19:12;;;;;;;13.77;7.70;;;;;;;1.61;73.84;100425.41;5133042;27;20099;-80
2022/03/05 08:21:39;;;;;;;17.85;10.77;;;;;;;1.70;74.28;100428.84;5147535;27;20048;-77
2022/03/05 08:24:07;;;;;;;18.30;11.48;;;;;;;1.81;73.70;100426.09;5146790;27;20038;-79
2022/03/05 08:26:36;;;;;;;18.90;11.95;;;;;;;1.91;72.84;100431.31;5146517;27;20039;-79
2022/03/05 08:29:04;;;;;;;14.68;7.97;;;;;;;1.88;72.41;100432.25;5146694;27;20436;-79
2022/03/05 08:31:32;;;;;;;14.32;8.02;;;;;;;2.10;71.18;100427.53;5146072;27;20042;-80
2022/03/05 08:34:01;;;;;;;14.68;7.13;;;;;;;1.85;71.86;100429.63;5142940;27;20043;-79
2022/03/05 08:36:28;;;;;;;14.80;8.23;;;;;;;1.85;72.41;100425.16;5133522;27;20057;-80
2022/03/05 08:38:56;;;;;;;10.90;5.57;;;;;;;1.80;71.76;100434.09;5118004;27;20402;-80
2022/03/05 08:41:24;;;;;;;11.32;5.25;;;;;;;1.98;71.15;100435.66;5112836;27;20517;-78
2022/03/05 08:43:53;;;;;;;11.25;5.10;;;;;;;1.99;71.26;100438.31;5113157;27;20081;-79
2022/03/05 08:46:21;;;;;;;12.18;5.25;;;;;;;2.08;69.67;100445.34;5128993;27;20043;-80
2022/03/05 08:48:48;;;;;;;11.57;6.00;;;;;;;1.96;70.73;100437.47;5128789;27;20447;-79
2022/03/05 08:51:16;;;;;;;11.55;5.22;;;;;;;1.86;70.79;100436.72;5136275;27;20044;-79
2022/03/05 08:53:44;;;;;;;10.32;5.07;;;;;;;1.93;71.55;100446.38;5136643;27;20043;-79
2022/03/05 08:56:11;;;;;;;10.30;5.60;;;;;;;1.85;69.82;100448.25;5123954;27;20051;-80
2022/03/05 08:58:39;;;;;;;13.40;6.68;;;;;;;1.98;69.33;100449.88;5127444;27;20092;-80
2022/03/05 09:01:08;;;;;;;14.93;7.63;;;;;;;1.91;69.96;100450.84;5124467;27;20043;-78
2022/03/05 09:03:36;;;;;;;22.30;12.20;;;;;;;1.74;70.16;100457.22;5134372;27;20050;-77
2022/03/05 09:06:04;;;;;;;17.60;9.38;;;;;;;1.88;70.08;100456.22;5134966;27;20050;-78
2022/03/05 09:08:31;;;;;;;20.33;10.00;;;;;;;1.79;69.92;100457.19;5132366;27;20039;-79
2022/03/05 09:10:59;;;;;;;24.42;14.85;;;;;;;1.79;69.58;100461.63;5134960;27;20031;-79
2022/03/05 09:13:27;;;;;;;13.57;6.55;;;;;;;1.88;69.53;100458.88;5134709;27;20039;-78
2022/03/05 09:15:54;;;;;;;16.92;10.23;;;;;;;1.91;69.08;100465.94;5134785;27;20413;-79
2022/03/05 09:18:23;;;;;;;12.10;5.82;;;;;;;1.99;68.85;100459.66;5134494;27;20769;-78
2022/03/05 09:20:51;;;;;;;14.35;8.00;;;;;;;1.99;69.29;100456.97;5132049;27;20141;-78
2022/03/05 09:23:19;;;;;;;19.80;10.90;;;;;;;1.89;69.60;100463.31;5134639;27;20075;-79
2022/03/05 09:25:47;;;;;;;13.93;7.93;;;;;;;1.93;69.18;100470.38;5134445;27;20396;-79
2022/03/05 09:28:15;;;;;;;15.50;8.23;;;;;;;1.94;69.03;100471.25;5134355;27;20401;-79
2022/03/05 09:30:42;;;;;;;35.15;17.40;;;;;;;1.95;67.67;100468.56;5134480;27;20043;-78
2022/03/05 09:33:11;;;;;;;31.80;12.80;;;;;;;1.98;67.84;100471.19;5131559;27;20043;-78
2022/03/05 09:35:41;;;;;;;28.27;12.55;;;;;;;2.03;68.44;100466.69;5134178;27;20497;-78
2022/03/05 09:38:09;;;;;;;17.63;5.85;;;;;;;2.09;68.77;100467.53;5134943;27;20063;-78
2022/03/05 09:40:36;;;;;;;10.63;4.32;;;;;;;2.06;67.98;100468.47;5134204;27;20426;-78
2022/03/05 09:43:04;;;;;;;10.25;3.90;;;;;;;2.04;67.31;100472.94;5133939;27;20043;-79
2022/03/05 09:45:32;;;;;;;7.63;3.38;;;;;;;2.05;66.71;100469.38;5130987;27;20039;-79
2022/03/05 09:47:59;;;;;;;7.53;3.50;;;;;;;2.09;66.79;100476.41;5133696;27;20489;-78
2022/03/05 09:50:29;;;;;;;10.63;3.85;;;;;;;2.09;67.08;100481.75;5134844;27;20081;-79
2022/03/05 09:52:58;;;;;;;8.18;3.60;;;;;;;1.92;65.26;100484.59;5129279;27;20040;-75
2022/03/05 09:55:26;;;;;;;15.18;4.28;;;;;;;1.97;66.38;100487.19;5127238;27;20042;-79
2022/03/05 09:57:54;;;;;;;9.40;3.40;;;;;;;2.03;66.69;100485.34;5133918;27;20039;-77
2022/03/05 10:00:22;;;;;;;7.72;3.10;;;;;;;2.07;65.90;100488.88;5133866;27;20103;-78
2022/03/05 10:02:49;;;;;;;8.60;3.90;;;;;;;2.06;66.18;100496.88;5130416;27;20039;-77
2022/03/05 10:05:19;;;;;;;8.40;3.60;;;;;;;1.96;65.73;100490.75;5133322;27;20052;-79
2022/03/05 10:08:10;;;;;;;10.40;3.50;;;;;;;2.02;65.37;100496.91;5133550;27;20043;-79
2022/03/05 10:10:46;;;;;;;9.73;4.10;;;;;;;2.10;65.14;100482.63;5130812;27;20055;-78
2022/03/05 10:13:25;;;;;;;10.07;4.40;;;;;;;2.11;66.02;100495.94;5134408;27;20432;-78
2022/03/05 10:15:55;;;;;;;8.07;3.92;;;;;;;2.11;65.20;100495.03;5132428;27;20054;-78
2022/03/05 10:18:30;;;;;;;11.25;4.80;;;;;;;2.13;66.26;100488.81;5132769;27;20039;-78
2022/03/05 10:20:58;;;;;;;25.60;9.05;;;;;;;2.16;65.77;100490.53;5131712;27;20046;-79
2022/03/05 10:23:30;;;;;;;138.73;50.05;;;;;;;2.14;65.14;100484.34;5133190;27;20046;-79
2022/03/05 10:25:57;;;;;;;33.22;15.82;;;;;;;2.13;64.89;100496.81;5133969;27;20382;-79
2022/03/05 10:28:27;;;;;;;16.88;7.65;;;;;;;2.21;65.06;100490.50;5133262;27;20054;-78
2022/03/05 10:30:58;;;;;;;26.58;15.57;;;;;;;2.13;65.23;100490.56;5133200;27;20485;-78
2022/03/05 10:33:30;;;;;;;12.60;7.38;;;;;;;2.18;64.85;100494.06;5133319;27;20053;-79
2022/03/05 10:36:00;;;;;;;533.22;113.85;;;;;;;2.12;64.62;100497.72;5131271;27;20047;-77
2022/03/05 10:38:44;;;;;;;86.25;29.02;;;;;;;2.16;64.72;100493.22;5132886;27;20085;-78
2022/03/05 10:41:13;;;;;;;26.08;16.25;;;;;;;2.17;64.80;100494.97;5129324;27;20505;-78
2022/03/05 10:43:41;;;;;;;10.40;4.93;;;;;;;2.20;63.90;100494.94;5132755;27;20076;-78
2022/03/05 10:46:08;;;;;;;43.78;25.33;;;;;;;2.22;65.37;100497.59;5132939;27;20039;-79
2022/03/05 10:48:40;;;;;;;30.25;15.45;;;;;;;2.20;64.17;100497.59;5132562;27;20496;-78
2022/03/05 10:51:11;;;;;;;18.35;8.50;;;;;;;2.24;65.23;100501.13;5133753;27;20049;-78
2022/03/05 10:53:45;;;;;;;29.23;17.45;;;;;;;2.22;65.09;100497.59;5133432;27;20088;-78
2022/03/05 10:56:30;;;;;;;12.88;6.35;;;;;;;2.25;64.27;100493.13;5131310;27;20524;-78
2022/03/05 10:59:07;;;;;;;52.92;26.48;;;;;;;2.22;64.55;100489.59;5132102;27;20035;-78
2022/03/05 11:01:36;;;;;;;60.35;32.85;;;;;;;2.30;64.48;100493.94;5132862;27;20039;-77
2022/03/05 11:04:05;;;;;;;27.40;12.88;;;;;;;2.27;64.56;100483.31;5132635;27;20047;-77
2022/03/05 11:06:36;;;;;;;28.60;12.90;;;;;;;2.33;64.36;100484.16;5130561;27;20050;-79
2022/03/05 11:09:05;;;;;;;39.92;24.05;;;;;;;2.38;65.33;100490.31;5137438;27;20393;-77
2022/03/05 11:11:36;;;;;;;25.85;13.38;;;;;;;2.36;63.89;100489.44;5130762;27;20049;-76
2022/03/05 11:14:04;;;;;;;26.65;15.68;;;;;;;2.41;63.37;100479.59;5132741;27;20488;-76
2022/03/05 11:16:31;;;;;;;21.88;12.30;;;;;;;2.40;64.84;100483.16;5130004;27;20050;-75
2022/03/05 11:18:59;;;;;;;28.45;15.05;;;;;;;2.44;64.03;100482.22;5132739;27;20500;-76
2022/03/05 11:21:28;;;;;;;20.20;9.95;;;;;;;2.48;62.51;100483.06;5132570;27;20050;-76
2022/03/05 11:23:57;;;;;;;32.30;18.98;;;;;;;2.45;62.36;100484.88;5131376;27;20050;-77
2022/03/05 11:26:27;;;;;;;19.60;10.65;;;;;;;2.37;62.47;100488.53;5129808;27;20043;-76
2022/03/05 11:28:54;;;;;;;32.13;17.98;;;;;;;2.12;61.46;100479.03;5126645;27;20533;-80
2022/03/05 11:31:23;;;;;;;38.83;22.48;;;;;;;2.30;62.28;100469.06;5127996;28;20105;-78
2022/03/05 11:33:52;;;;;;;21.40;12.23;;;;;;;2.36;60.93;100470.78;5131761;27;20119;-78
2022/03/05 11:36:28;;;;;;;10.90;4.93;;;;;;;2.29;61.11;100462.84;5132789;27;20500;-79
2022/03/05 11:39:15;;;;;;;;;;;;;;;2.45;62.02;100465.31;5133939;27;20072;-80
2022/03/05 11:41:56;;;;;;;19.00;10.35;;;;;;;2.49;61.98;100459.03;5118841;27;20022;-80